Wadowice II — C6XW7 — position and weather

sailwx.info

Track history (hours):
 
Tides and Currents Weather Stations Pressure Air Temp Water Temp Dewpoint Dewpoint Depression Visibility Wind Speed Wind Dir Waves Ship Positions

Wadowice II

Last reported at 2018-Jun-16 03:36 UTC. Time now 2018-Jun-22 09:30 UTC.
Position N 37°19' E 015°27'.

Length 188 m; draft 7.1 m.

Type: Cargo ship. MMSI: 311024300.

Date/timePositionNaut miles runAvg speedWind from/ knotsBaromVisibWave heightAir tempDewpointWater temp
2018-Jun-16 03:36N 37°19' E 015°27'1 4.8
2018-Jun-16 03:29N 37°19' E 015°26'3 4.9
2018-Jun-16 02:55N 37°21' E 015°29'10 7.1
2018-Jun-16 01:29N 37°28' E 015°37'448 9.0
2018-Jun-13 23:53N 44°30' E 012°17'2 0.0
2018-Jun-12 08:58N 44°28' E 012°15'0 0.0
2018-Jun-12 08:28N 44°28' E 012°15'0 0.0
2018-Jun-12 07:46N 44°28' E 012°15'0 0.0
2018-Jun-12 07:22N 44°28' E 012°15'0 0.0
2018-Jun-12 04:19N 44°28' E 012°15'0 0.0
2018-Jun-12 03:55N 44°28' E 012°15'0 0.0
2018-Jun-11 18:43N 44°28' E 012°15'0 0.0
2018-Jun-11 17:07N 44°28' E 012°15'0 0.0
2018-Jun-11 16:58N 44°28' E 012°15'0 0.0
2018-Jun-11 12:58N 44°28' E 012°15'0 0.0
2018-Jun-10 23:55N 44°28' E 012°15'0 0.0
2018-Jun-10 23:28N 44°28' E 012°15'0 0.0
2018-Jun-10 22:58N 44°28' E 012°15'0 0.0
2018-Jun-10 21:58N 44°28' E 012°15'0 0.0
2018-Jun-10 20:58N 44°28' E 012°15'0 0.0
2018-Jun-10 19:58N 44°28' E 012°15'0 0.0
2018-Jun-10 18:04N 44°28' E 012°15'0 0.0
2018-Jun-10 17:46N 44°28' E 012°15'0 0.0
2018-Jun-10 17:25N 44°28' E 012°15'0 0.0
2018-Jun-10 16:43N 44°28' E 012°15'  
Track history (hours):
 
Tides and Currents Weather Stations Pressure Air Temp Water Temp Dewpoint Dewpoint Depression Visibility Wind Speed Wind Dir Waves Ship Positions

Wadowice II

Last reported at 2018-Jun-16 03:36 UTC. Time now 2018-Jun-22 09:30 UTC.
Position N 37°19' E 015°27'.

Length 188 m; draft 7.1 m.

Type: Cargo ship. MMSI: 311024300.

Date/timePositionNaut miles runAvg speedWind from/ knotsBaromVisibWave heightAir tempDewpointWater temp
2018-Jun-16 03:36N 37°19' E 015°27'1 4.8
2018-Jun-16 03:29N 37°19' E 015°26'3 4.9
2018-Jun-16 02:55N 37°21' E 015°29'10 7.1
2018-Jun-16 01:29N 37°28' E 015°37'448 9.0
2018-Jun-13 23:53N 44°30' E 012°17'2 0.0
2018-Jun-12 08:58N 44°28' E 012°15'0 0.0
2018-Jun-12 08:28N 44°28' E 012°15'0 0.0
2018-Jun-12 07:46N 44°28' E 012°15'0 0.0
2018-Jun-12 07:22N 44°28' E 012°15'0 0.0
2018-Jun-12 04:19N 44°28' E 012°15'0 0.0
2018-Jun-12 03:55N 44°28' E 012°15'0 0.0
2018-Jun-11 18:43N 44°28' E 012°15'0 0.0
2018-Jun-11 17:07N 44°28' E 012°15'0 0.0
2018-Jun-11 16:58N 44°28' E 012°15'0 0.0
2018-Jun-11 12:58N 44°28' E 012°15'0 0.0
2018-Jun-10 23:55N 44°28' E 012°15'0 0.0
2018-Jun-10 23:28N 44°28' E 012°15'0 0.0
2018-Jun-10 22:58N 44°28' E 012°15'0 0.0
2018-Jun-10 21:58N 44°28' E 012°15'0 0.0
2018-Jun-10 20:58N 44°28' E 012°15'0 0.0
2018-Jun-10 19:58N 44°28' E 012°15'0 0.0
2018-Jun-10 18:04N 44°28' E 012°15'0 0.0
2018-Jun-10 17:46N 44°28' E 012°15'0 0.0
2018-Jun-10 17:25N 44°28' E 012°15'0 0.0
2018-Jun-10 16:43N 44°28' E 012°15'  

Dump ship's entire track history